Time;durP1;ratioP1;P1;durP2;ratioP2;P2;SDS_P1;SDS_P2;PMS_P1;PMS_P2;Temp;Humidity;BMP_temperature;BMP_pressure;BME280_temperature;BME280_humidity;BME280_pressure;Samples;Min_cycle;Max_cycle;Signal;HPM_P1;HPM_P2
2021/06/07 00:02:02;;;;;;;13.80;12.43;;;;;;;19.30;84.42;94981.75;5099562;28;20951;-81
2021/06/07 00:04:29;;;;;;;14.30;12.90;;;;;;;19.30;84.66;94980.94;5099709;28;20498;-81
2021/06/07 00:06:57;;;;;;;13.23;12.00;;;;;;;19.26;84.95;94979.66;5117700;28;20443;-81
2021/06/07 00:09:26;;;;;;;15.40;12.37;;;;;;;19.25;84.89;94975.34;5116778;28;20477;-81
2021/06/07 00:11:56;;;;;;;18.50;12.90;;;;;;;19.25;84.85;94980.66;5117648;28;20445;-81
2021/06/07 00:14:27;;;;;;;14.30;13.00;;;;;;;19.22;85.08;94979.19;5117470;28;20440;-81
2021/06/07 00:16:53;;;;;;;14.37;12.87;;;;;;;19.19;85.09;94985.69;5118096;28;20453;-81
2021/06/07 00:19:21;;;;;;;16.83;12.27;;;;;;;19.19;85.24;94983.03;5117583;28;20857;-81
2021/06/07 00:21:48;;;;;;;13.50;12.10;;;;;;;19.16;85.42;94982.59;5117035;28;20448;-81
2021/06/07 00:24:16;;;;;;;13.60;12.30;;;;;;;19.14;85.65;94979.28;5116909;28;20477;-81
2021/06/07 00:26:45;;;;;;;13.23;12.03;;;;;;;19.13;86.04;94983.78;5116968;28;20506;-81
2021/06/07 00:29:12;;;;;;;13.70;12.30;;;;;;;19.12;86.05;94982.13;5098503;28;21024;-81
2021/06/07 00:31:39;;;;;;;13.80;12.43;;;;;;;19.11;85.75;94974.31;5117282;28;20453;-81
2021/06/07 00:34:07;;;;;;;15.50;14.00;;;;;;;19.02;86.41;94968.22;5117472;28;20956;-81
2021/06/07 00:36:34;;;;;;;16.70;13.27;;;;;;;19.05;85.96;94967.88;5098548;28;20439;-81
2021/06/07 00:39:01;;;;;;;15.63;14.03;;;;;;;19.03;85.91;94967.22;5117502;28;20434;-81
2021/06/07 00:41:27;;;;;;;14.40;13.10;;;;;;;19.04;86.07;94973.38;5118008;28;20447;-81
2021/06/07 00:43:57;;;;;;;15.23;13.80;;;;;;;19.07;86.03;94979.16;5115796;28;20471;-81
2021/06/07 00:46:25;;;;;;;15.27;13.83;;;;;;;19.08;86.36;94975.50;5117081;28;20431;-80
2021/06/07 00:48:53;;;;;;;16.13;14.43;;;;;;;19.11;86.26;94979.63;5117469;28;20509;-81
2021/06/07 00:51:21;;;;;;;14.07;12.87;;;;;;;19.13;85.91;94981.13;5114923;28;20439;-81
2021/06/07 00:53:48;;;;;;;14.60;13.20;;;;;;;19.15;86.09;94980.94;5117232;28;20823;-81
2021/06/07 00:56:15;;;;;;;15.73;14.07;;;;;;;19.14;85.96;94980.09;5116623;28;20443;-81
2021/06/07 00:58:44;;;;;;;13.30;12.00;;;;;;;19.16;86.10;94977.25;5116984;28;20437;-81
2021/06/07 01:01:14;;;;;;;15.17;13.83;;;;;;;19.17;86.23;94974.41;5097895;28;20807;-81
2021/06/07 01:03:42;;;;;;;17.40;13.90;;;;;;;19.16;86.24;94977.25;5116531;28;20442;-82
2021/06/07 01:06:10;;;;;;;14.07;12.67;;;;;;;19.13;86.03;94978.44;5116316;28;20428;-81
2021/06/07 01:08:37;;;;;;;15.23;13.83;;;;;;;19.11;85.80;94977.81;5116503;28;20466;-81
2021/06/07 01:11:04;;;;;;;14.70;13.03;;;;;;;19.04;86.42;94976.84;5116354;28;20474;-81
2021/06/07 01:13:31;;;;;;;13.30;12.10;;;;;;;19.03;86.38;94975.19;5116774;28;20443;-81
2021/06/07 01:15:58;;;;;;;15.20;13.23;;;;;;;19.02;86.47;94981.53;5116590;28;20455;-81
2021/06/07 01:18:29;;;;;;;13.80;12.50;;;;;;;19.03;86.39;94972.53;5117237;28;20424;-81
2021/06/07 01:20:58;;;;;;;15.97;14.37;;;;;;;19.03;86.30;94979.69;5116582;28;20441;-81
2021/06/07 01:23:26;;;;;;;14.00;12.70;;;;;;;18.99;86.25;94973.91;5117094;28;20438;-81
2021/06/07 01:25:54;;;;;;;16.80;13.00;;;;;;;18.99;86.51;94965.94;5097362;28;20481;-81
2021/06/07 01:28:21;;;;;;;14.97;13.47;;;;;;;18.98;86.25;94963.44;5097410;28;20476;-81
2021/06/07 01:30:50;;;;;;;15.23;13.63;;;;;;;18.99;86.70;94965.09;5115810;28;20427;-81
2021/06/07 01:33:19;;;;;;;14.90;13.10;;;;;;;18.96;86.80;94965.47;5116812;28;20467;-81
2021/06/07 01:35:46;;;;;;;14.00;12.60;;;;;;;18.93;86.99;94965.81;5116484;28;20460;-81
2021/06/07 01:38:13;;;;;;;13.90;12.60;;;;;;;18.88;86.95;94969.03;5116133;28;20447;-81
2021/06/07 01:40:44;;;;;;;16.87;15.13;;;;;;;18.85;87.60;94972.88;5116327;28;20459;-81
2021/06/07 01:43:10;;;;;;;15.10;13.60;;;;;;;18.83;87.86;94968.75;5115889;27;20448;-81
2021/06/07 01:45:38;;;;;;;16.53;14.83;;;;;;;18.84;87.98;94965.06;5116997;28;20427;-82
2021/06/07 01:48:07;;;;;;;15.93;13.73;;;;;;;18.85;87.54;94970.22;5115483;28;20527;-79
2021/06/07 01:50:35;;;;;;;16.23;14.10;;;;;;;18.86;87.77;94973.69;5113917;28;20447;-80
2021/06/07 01:53:01;;;;;;;14.73;13.37;;;;;;;18.86;87.51;94979.00;5115567;28;20427;-80
2021/06/07 01:55:33;;;;;;;14.90;13.50;;;;;;;18.84;87.38;94973.88;5096842;28;21309;-80
2021/06/07 01:58:02;;;;;;;15.93;14.40;;;;;;;18.81;87.64;94974.25;5116312;28;20431;-79
2021/06/07 02:00:31;;;;;;;20.60;13.40;;;;;;;18.82;87.79;94970.56;5116587;28;20484;-80
2021/06/07 02:02:58;;;;;;;16.00;14.40;;;;;;;18.84;87.68;94970.41;5116042;28;20451;-80
2021/06/07 02:05:29;;;;;;;17.10;15.30;;;;;;;18.84;87.86;94975.72;5115696;28;20434;-80
2021/06/07 02:07:57;;;;;;;15.47;13.83;;;;;;;18.90;87.55;94982.13;5115050;28;20475;-80
2021/06/07 02:10:28;;;;;;;16.00;14.50;;;;;;;18.93;87.54;94976.47;5096801;28;20433;-80
2021/06/07 02:12:56;;;;;;;15.73;14.27;;;;;;;18.94;87.05;94978.13;5117200;28;20434;-81
2021/06/07 02:15:35;;;;;;;16.17;14.57;;;;;;;18.94;87.21;94976.28;5123268;28;20427;-81
2021/06/07 02:18:02;;;;;;;15.57;14.03;;;;;;;18.91;87.22;94973.97;5115192;28;20953;-81
2021/06/07 02:20:29;;;;;;;21.67;15.20;;;;;;;18.92;86.92;94975.63;5116561;28;20807;-81
2021/06/07 02:22:55;;;;;;;15.80;14.40;;;;;;;18.92;87.19;94972.16;5114635;28;20451;-81
2021/06/07 02:25:23;;;;;;;15.60;14.10;;;;;;;18.89;87.26;94973.34;5116697;28;20489;-81
2021/06/07 02:27:50;;;;;;;15.80;14.40;;;;;;;18.85;87.30;94972.03;5114592;28;20508;-81
2021/06/07 02:30:21;;;;;;;15.63;14.03;;;;;;;18.80;87.61;94972.59;5115114;28;20444;-81
2021/06/07 02:32:49;;;;;;;18.73;15.10;;;;;;;18.74;87.79;94970.63;5096309;28;20493;-80
2021/06/07 02:35:18;;;;;;;16.50;14.80;;;;;;;18.72;88.60;94977.94;5113520;28;20447;-81
2021/06/07 02:37:46;;;;;;;18.60;16.07;;;;;;;18.71;88.65;94972.81;5115069;28;20947;-81
2021/06/07 02:40:15;;;;;;;16.80;15.20;;;;;;;18.70;88.75;94976.47;5115380;28;20507;-81
2021/06/07 02:42:42;;;;;;;16.57;14.77;;;;;;;18.68;88.91;94974.00;5115216;28;20433;-81
2021/06/07 02:45:12;;;;;;;18.33;16.30;;;;;;;18.68;89.03;94967.84;5080035;28;20434;-81
2021/06/07 02:47:38;;;;;;;18.20;16.43;;;;;;;18.69;88.76;94977.47;5115690;28;20781;-81
2021/06/07 02:50:10;;;;;;;16.73;14.93;;;;;;;18.69;88.83;94970.31;5096785;28;21116;-81
2021/06/07 02:52:46;;;;;;;18.47;16.50;;;;;;;18.71;88.91;94967.50;5114857;28;20431;-81
2021/06/07 02:55:14;;;;;;;18.77;16.80;;;;;;;18.71;88.83;94970.97;5115557;28;20455;-81
2021/06/07 02:57:40;;;;;;;18.93;17.13;;;;;;;18.73;88.44;94981.44;5114919;28;20439;-81
2021/06/07 03:00:08;;;;;;;15.47;14.00;;;;;;;18.72;88.62;94982.44;5115612;28;20443;-81
2021/06/07 03:02:34;;;;;;;18.07;16.27;;;;;;;18.76;88.61;94971.25;5116294;28;20457;-81
2021/06/07 03:05:01;;;;;;;17.90;16.20;;;;;;;18.81;88.48;94973.41;5116305;28;20499;-81
2021/06/07 03:07:29;;;;;;;18.53;16.70;;;;;;;18.79;88.03;94970.94;5115894;28;20416;-81
2021/06/07 03:09:56;;;;;;;18.23;16.43;;;;;;;18.76;88.10;94973.91;5115267;28;20450;-81
2021/06/07 03:12:22;;;;;;;18.83;16.47;;;;;;;18.79;88.26;94978.06;5115444;28;20456;-81
2021/06/07 03:14:49;;;;;;;15.27;13.87;;;;;;;18.81;88.27;94974.25;5117415;28;20459;-81
2021/06/07 03:17:15;;;;;;;18.70;14.70;;;;;;;18.78;87.95;94979.88;5116293;28;20926;-81
2021/06/07 03:19:42;;;;;;;17.27;15.53;;;;;;;18.78;87.90;94976.41;5115305;28;20508;-81
2021/06/07 03:22:08;;;;;;;16.13;14.63;;;;;;;18.76;88.17;94973.09;5115918;28;20435;-81
2021/06/07 03:24:36;;;;;;;17.93;16.03;;;;;;;18.75;88.46;94985.56;5079212;28;20475;-80
2021/06/07 03:27:04;;;;;;;21.70;16.20;;;;;;;18.78;88.33;94979.06;5115211;28;20434;-81
2021/06/07 03:29:30;;;;;;;17.40;15.70;;;;;;;18.76;88.66;94986.38;5114120;28;20489;-81
2021/06/07 03:31:57;;;;;;;17.90;16.10;;;;;;;18.73;88.69;94987.56;5117541;28;20431;-81
2021/06/07 03:34:23;;;;;;;20.63;15.90;;;;;;;18.78;88.71;94995.84;5114363;28;20452;-81
2021/06/07 03:36:50;;;;;;;19.03;16.00;;;;;;;18.78;88.46;94997.66;5095559;28;20456;-81
2021/06/07 03:39:16;;;;;;;22.80;16.03;;;;;;;18.78;88.78;95000.31;5114044;28;20557;-81
2021/06/07 03:41:44;;;;;;;19.33;17.33;;;;;;;18.80;89.15;94998.34;5114509;28;20444;-81
2021/06/07 03:44:11;;;;;;;18.37;16.30;;;;;;;18.84;88.67;94989.00;5115638;28;20519;-81
2021/06/07 03:46:37;;;;;;;17.40;15.90;;;;;;;18.91;88.25;95000.56;5118954;28;20491;-81
2021/06/07 03:49:04;;;;;;;22.53;15.97;;;;;;;18.95;87.85;94996.56;5118279;28;20479;-81
2021/06/07 03:51:31;;;;;;;18.93;16.93;;;;;;;19.01;87.91;94997.66;5118362;28;20480;-80
2021/06/07 03:53:57;;;;;;;17.17;15.40;;;;;;;19.07;87.79;94997.75;5117980;28;20478;-81
2021/06/07 03:56:24;;;;;;;19.03;16.83;;;;;;;19.12;87.43;94998.09;5118331;28;20428;-81
2021/06/07 03:58:52;;;;;;;17.20;15.50;;;;;;;19.14;87.23;95000.56;5118009;28;20432;-81
2021/06/07 04:01:18;;;;;;;17.47;15.77;;;;;;;19.15;87.07;94997.72;5118264;28;20512;-81
2021/06/07 04:03:45;;;;;;;19.07;17.07;;;;;;;19.22;87.24;95004.97;5118069;28;20454;-81
2021/06/07 04:06:12;;;;;;;17.93;16.23;;;;;;;19.28;86.79;95001.59;5118200;28;20431;-81
2021/06/07 04:08:39;;;;;;;16.43;14.80;;;;;;;19.32;87.19;94993.06;5118264;28;21081;-85
2021/06/07 04:11:05;;;;;;;18.70;16.70;;;;;;;19.45;88.77;95000.44;5118688;28;20424;-85
2021/06/07 04:13:32;;;;;;;17.97;16.20;;;;;;;19.51;87.91;94994.38;5120679;28;20491;-83
2021/06/07 04:16:00;;;;;;;18.27;16.47;;;;;;;19.54;85.91;94998.53;5118052;28;20459;-83
2021/06/07 04:18:26;;;;;;;16.10;14.70;;;;;;;19.54;85.10;94994.03;5117677;28;20440;-82
2021/06/07 04:20:54;;;;;;;18.40;16.50;;;;;;;19.56;85.24;94994.69;5117230;28;20453;-80
2021/06/07 04:23:21;;;;;;;20.60;16.03;;;;;;;19.63;84.96;94997.44;5117878;28;20556;-82
2021/06/07 04:25:47;;;;;;;17.50;15.70;;;;;;;19.70;84.60;94993.06;5117591;28;20810;-81
2021/06/07 04:28:14;;;;;;;18.83;15.80;;;;;;;19.71;84.56;94995.53;5118017;28;20488;-82
2021/06/07 04:30:41;;;;;;;17.43;15.63;;;;;;;19.73;84.00;94998.00;5117940;28;20439;-83
2021/06/07 04:33:09;;;;;;;16.93;15.43;;;;;;;20.02;82.92;95007.81;5118536;28;20771;-83
2021/06/07 04:35:36;;;;;;;19.23;16.47;;;;;;;19.96;82.38;94998.75;5098612;28;20946;-83
2021/06/07 04:38:05;;;;;;;20.40;16.60;;;;;;;19.96;82.34;95003.25;5117981;28;20513;-85
2021/06/07 04:40:37;;;;;;;20.43;15.63;;;;;;;19.96;82.65;95000.59;5119984;28;20456;-83
2021/06/07 04:43:06;;;;;;;19.40;16.63;;;;;;;20.01;82.93;95003.50;5119805;28;21045;-84
2021/06/07 04:45:32;;;;;;;17.10;15.30;;;;;;;20.03;82.76;95001.47;5120047;28;20537;-84
2021/06/07 04:47:59;;;;;;;19.73;16.97;;;;;;;20.10;82.92;95007.72;5118976;28;20836;-82
2021/06/07 04:50:29;;;;;;;20.83;17.90;;;;;;;20.16;82.27;95000.81;5117270;28;20922;-83
2021/06/07 04:52:59;;;;;;;19.10;17.37;;;;;;;20.22;82.02;95000.06;5118825;28;20442;-84
2021/06/07 04:55:28;;;;;;;19.67;17.70;;;;;;;20.24;81.50;94993.56;5118924;28;20952;-84
2021/06/07 04:57:55;;;;;;;19.50;17.60;;;;;;;20.30;81.65;94998.13;5120434;28;20441;-85
2021/06/07 05:00:23;;;;;;;18.97;17.10;;;;;;;20.35;81.95;95002.91;5119105;28;20984;-83
2021/06/07 05:02:51;;;;;;;19.23;16.90;;;;;;;20.41;81.09;95003.00;5081506;28;20435;-84
2021/06/07 05:05:19;;;;;;;21.83;18.03;;;;;;;20.45;80.96;95002.63;5118491;28;20474;-84
2021/06/07 05:07:47;;;;;;;19.83;17.93;;;;;;;20.54;80.85;95005.00;5112672;28;20439;-84
2021/06/07 05:10:15;;;;;;;18.50;16.60;;;;;;;20.68;80.83;95008.63;5098506;28;20444;-84
2021/06/07 05:12:41;;;;;;;18.37;16.47;;;;;;;20.94;79.68;95011.56;5099731;28;20428;-83
2021/06/07 05:15:11;;;;;;;19.93;17.30;;;;;;;21.20;78.22;95004.81;5079016;28;20440;-84
2021/06/07 05:17:38;;;;;;;21.40;15.67;;;;;;;21.51;76.95;95012.50;5096656;28;20806;-83
2021/06/07 05:20:07;;;;;;;22.00;16.07;;;;;;;21.70;75.24;95006.47;5098193;28;20444;-82
2021/06/07 05:22:33;;;;;;;18.10;15.87;;;;;;;21.88;74.93;95008.63;5097308;28;20465;-81
2021/06/07 05:25:02;;;;;;;24.60;16.47;;;;;;;21.87;73.59;95007.78;5095739;28;20475;-83
2021/06/07 05:27:28;;;;;;;18.33;15.83;;;;;;;21.87;73.88;95015.00;5096205;28;20949;-81
2021/06/07 05:29:55;;;;;;;19.97;16.57;;;;;;;21.86;73.88;95008.00;5097004;28;20485;-82
2021/06/07 05:32:21;;;;;;;18.90;17.00;;;;;;;21.87;74.75;95013.13;5100326;28;20464;-85
2021/06/07 05:34:48;;;;;;;28.80;15.60;;;;;;;21.93;74.49;95016.88;5121551;28;20510;-85
2021/06/07 05:37:16;;;;;;;19.03;15.83;;;;;;;21.92;74.62;95004.53;5122825;28;20455;-84
2021/06/07 05:39:43;;;;;;;18.63;16.80;;;;;;;21.98;74.74;95014.47;5120533;28;20482;-85
2021/06/07 05:42:12;;;;;;;16.03;14.43;;;;;;;22.06;74.22;95006.31;5117435;28;20431;-82
2021/06/07 05:44:39;;;;;;;17.90;15.90;;;;;;;22.16;74.19;95011.28;5118100;28;20438;-83
2021/06/07 05:47:06;;;;;;;19.30;17.40;;;;;;;22.14;73.08;95014.16;5120010;28;20218;-83
2021/06/07 05:49:35;;;;;;;17.47;15.53;;;;;;;22.18;72.32;95010.03;5119894;28;20476;-84
2021/06/07 05:52:01;;;;;;;20.20;15.90;;;;;;;22.26;71.79;95017.06;5118352;28;20444;-85
2021/06/07 05:54:28;;;;;;;16.57;14.73;;;;;;;22.33;71.94;95007.25;5122239;28;20456;-85
2021/06/07 05:56:55;;;;;;;18.73;16.83;;;;;;;22.47;71.81;95016.97;5119187;28;20787;-84
2021/06/07 05:59:23;;;;;;;17.97;16.37;;;;;;;22.54;71.01;95008.94;5120979;28;20576;-85
2021/06/07 06:01:50;;;;;;;18.97;17.00;;;;;;;22.52;70.88;95011.00;5085813;28;20441;-85
2021/06/07 06:04:20;;;;;;;20.77;17.00;;;;;;;22.47;69.74;95013.47;5121031;28;20438;-85
2021/06/07 06:06:46;;;;;;;18.57;15.50;;;;;;;22.42;70.98;95011.38;5119578;28;20445;-85
2021/06/07 06:09:13;;;;;;;18.50;15.20;;;;;;;22.47;71.54;95008.13;5120068;28;20469;-85
2021/06/07 06:11:41;;;;;;;31.50;17.93;;;;;;;22.49;71.43;95016.75;5125750;27;20456;-85
2021/06/07 06:14:08;;;;;;;16.97;15.17;;;;;;;22.40;71.09;95012.63;5121128;27;20450;-85
2021/06/07 06:16:36;;;;;;;21.40;18.37;;;;;;;22.31;70.35;95009.31;5119642;28;20432;-85
2021/06/07 06:19:04;;;;;;;19.67;17.30;;;;;;;22.22;70.58;95011.28;5120495;28;20436;-85
2021/06/07 06:21:30;;;;;;;19.43;17.27;;;;;;;22.15;71.04;95010.44;5118785;28;20925;-85
2021/06/07 06:23:58;;;;;;;22.90;16.10;;;;;;;22.13;71.29;95012.50;5118978;28;20878;-83
2021/06/07 06:26:25;;;;;;;19.60;17.03;;;;;;;21.95;71.87;95012.16;5119323;28;20571;-84
2021/06/07 06:28:51;;;;;;;20.57;17.33;;;;;;;21.71;72.49;95008.13;5117929;28;20484;-83
2021/06/07 06:31:18;;;;;;;23.03;19.07;;;;;;;21.68;73.07;95013.00;5118075;28;20486;-85
2021/06/07 06:33:46;;;;;;;22.93;16.40;;;;;;;21.83;74.16;95006.53;5119882;28;20429;-84
2021/06/07 06:36:13;;;;;;;27.63;16.67;;;;;;;22.02;73.68;95009.53;5117539;28;20948;-83
2021/06/07 06:38:39;;;;;;;19.87;16.80;;;;;;;22.17;73.26;95013.75;5081414;28;20448;-83
2021/06/07 06:41:07;;;;;;;22.33;17.70;;;;;;;22.28;71.49;95012.38;5121693;28;20459;-86
2021/06/07 06:43:34;;;;;;;19.30;17.40;;;;;;;22.29;71.75;95013.19;5121497;28;20433;-82
2021/06/07 06:46:01;;;;;;;19.27;17.23;;;;;;;22.19;72.04;95016.22;5120545;28;20452;-85
2021/06/07 06:48:29;;;;;;;23.80;19.23;;;;;;;22.26;72.05;95014.41;5117756;28;20886;-84
2021/06/07 06:50:57;;;;;;;19.33;17.43;;;;;;;22.37;71.73;95018.38;5120603;28;20782;-84
2021/06/07 06:53:25;;;;;;;21.37;17.30;;;;;;;22.43;73.13;95014.88;5120694;28;20949;-84
2021/06/07 06:55:52;;;;;;;22.03;16.60;;;;;;;22.51;70.13;95018.19;5121773;28;20453;-83
2021/06/07 06:58:19;;;;;;;13.97;12.50;;;;;;;22.60;64.33;95012.69;5119132;28;20472;-84
2021/06/07 07:00:46;;;;;;;15.10;12.13;;;;;;;22.71;63.57;95015.59;5117792;28;20446;-83
2021/06/07 07:03:14;;;;;;;12.63;11.53;;;;;;;22.74;61.42;95019.72;5118080;28;20449;-84
2021/06/07 07:05:42;;;;;;;13.40;12.00;;;;;;;22.76;63.66;95017.66;5119337;28;20465;-83
2021/06/07 07:08:11;;;;;;;13.63;11.40;;;;;;;22.83;64.08;95019.34;5120263;28;21028;-84
2021/06/07 07:10:41;;;;;;;15.27;12.63;;;;;;;22.77;63.76;95006.75;5111053;28;20450;-84
2021/06/07 07:13:11;;;;;;;14.90;12.27;;;;;;;22.84;63.40;95017.50;5116573;28;20446;-83
2021/06/07 07:15:38;;;;;;;14.37;12.90;;;;;;;22.88;63.64;95009.91;5119113;28;20441;-83
2021/06/07 07:18:06;;;;;;;14.73;13.23;;;;;;;22.94;65.38;95019.81;5120185;28;20463;-83
2021/06/07 07:20:33;;;;;;;13.80;12.10;;;;;;;22.98;62.82;95026.41;5122098;28;20492;-83
2021/06/07 07:23:00;;;;;;;20.30;13.20;;;;;;;22.89;63.72;95020.44;5123983;28;20434;-82
2021/06/07 07:25:29;;;;;;;13.90;12.50;;;;;;;22.91;65.41;95018.38;5121175;28;20993;-83
2021/06/07 07:27:56;;;;;;;14.50;12.97;;;;;;;22.90;61.62;95024.75;5122104;28;20485;-84
2021/06/07 07:30:26;;;;;;;18.73;13.60;;;;;;;23.06;62.84;95018.16;5120223;28;20494;-84
2021/06/07 07:33:02;;;;;;;13.33;12.03;;;;;;;23.20;61.69;95024.38;5121561;28;20845;-84
2021/06/07 07:35:29;;;;;;;14.57;13.20;;;;;;;23.34;61.44;95010.78;5124307;27;20786;-84
2021/06/07 07:37:57;;;;;;;12.77;11.40;;;;;;;23.52;60.19;95020.88;5131613;27;20436;-83
2021/06/07 07:40:25;;;;;;;29.60;14.50;;;;;;;23.62;60.85;95005.25;5115734;27;20452;-84
2021/06/07 07:42:56;;;;;;;15.17;12.67;;;;;;;23.64;60.64;95015.75;5102852;28;20450;-83
2021/06/07 07:45:26;;;;;;;16.43;12.73;;;;;;;23.70;60.72;95014.91;5087876;28;20515;-84
2021/06/07 07:47:53;;;;;;;14.60;12.43;;;;;;;23.77;59.06;95021.13;5100182;28;20461;-82
2021/06/07 07:50:20;;;;;;;14.60;13.37;;;;;;;23.88;59.80;95016.97;5112252;28;20492;-83
2021/06/07 07:52:47;;;;;;;15.57;14.00;;;;;;;23.94;59.00;95024.16;5120358;28;20433;-83
2021/06/07 07:55:17;;;;;;;18.60;16.83;;;;;;;23.84;58.46;95021.91;5123605;28;21008;-83
2021/06/07 07:57:44;;;;;;;17.40;15.70;;;;;;;23.83;58.80;95027.50;5121743;28;20445;-83
2021/06/07 08:00:15;;;;;;;13.97;12.67;;;;;;;23.82;58.94;95023.97;5123533;28;20827;-83
2021/06/07 08:02:41;;;;;;;13.77;12.17;;;;;;;23.79;59.67;95011.00;5126810;28;20438;-82
2021/06/07 08:08:00;;;;;;;15.20;13.67;;;;;;;24.09;58.41;95022.09;5148698;27;20448;-82
2021/06/07 08:13:12;;;;;;;19.63;14.10;;;;;;;24.26;60.10;95022.44;5057080;28;20452;-83
2021/06/07 08:26:05;;;;;;;17.43;12.97;;;;;;;24.51;59.51;95015.34;5878609;23;20497;-83
2021/06/07 08:28:32;;;;;;;15.30;13.70;;;;;;;24.48;58.62;95010.41;5021550;28;20489;-82
2021/06/07 08:31:00;;;;;;;15.70;13.07;;;;;;;24.49;59.06;95019.28;5025016;28;20442;-84
2021/06/07 08:33:34;;;;;;;15.20;13.60;;;;;;;24.39;59.07;95017.06;5026437;28;20802;-83
2021/06/07 08:36:02;;;;;;;15.43;13.93;;;;;;;24.40;58.94;95016.84;4990176;28;20498;-84
2021/06/07 08:38:28;;;;;;;17.83;12.43;;;;;;;24.42;60.54;95024.69;4989187;28;20457;-84
2021/06/07 08:43:37;;;;;;;13.77;12.27;;;;;;;24.55;58.54;95015.75;5527535;23;20496;-84
2021/06/07 08:46:25;;;;;;;14.23;12.90;;;;;;;24.48;58.11;95007.72;5054042;28;20441;-82
2021/06/07 08:49:37;;;;;;;13.83;12.40;;;;;;;24.45;62.02;95004.66;5405586;22;20479;-84
2021/06/07 08:54:48;;;;;;;14.27;12.87;;;;;;;24.35;60.11;95005.94;5434378;23;20488;-84
2021/06/07 08:57:27;;;;;;;14.17;12.93;;;;;;;24.47;61.24;95013.31;5037966;28;20452;-84
2021/06/07 09:03:27;;;;;;;15.57;14.17;;;;;;;24.45;60.66;94997.44;5285907;23;20519;-82
2021/06/07 09:09:05;;;;;;;15.43;14.03;;;;;;;24.44;60.09;95003.00;5068057;23;20474;-85
2021/06/07 09:11:42;;;;;;;15.10;13.60;;;;;;;24.40;59.32;95002.63;5000460;28;20921;-82
2021/06/07 09:14:22;;;;;;;18.90;16.57;;;;;;;24.37;60.69;94998.50;5001577;28;20454;-83
2021/06/07 09:16:51;;;;;;;14.37;12.87;;;;;;;24.29;61.19;94989.88;5015980;28;20440;-84
2021/06/07 09:19:23;;;;;;;16.53;14.70;;;;;;;24.24;61.49;95000.38;5024436;28;20449;-84
2021/06/07 09:21:50;;;;;;;16.40;14.70;;;;;;;24.17;62.88;94992.34;5023614;28;20504;-84
2021/06/07 09:24:16;;;;;;;17.00;15.37;;;;;;;24.09;63.43;94989.91;5019741;28;20477;-84
2021/06/07 09:26:45;;;;;;;17.43;15.60;;;;;;;24.11;64.84;94985.16;5019352;28;20444;-84
2021/06/07 09:29:32;;;;;;;18.30;15.60;;;;;;;24.06;65.90;94984.97;5020271;28;20531;-83
2021/06/07 09:32:01;;;;;;;19.03;16.90;;;;;;;24.01;68.40;94980.25;5023153;28;20459;-84
2021/06/07 09:34:30;;;;;;;19.63;17.73;;;;;;;23.94;70.05;94984.78;5021615;28;20453;-85
2021/06/07 09:37:04;;;;;;;19.73;17.73;;;;;;;23.77;70.48;94983.59;5025535;28;20456;-84
2021/06/07 09:39:31;;;;;;;20.70;17.83;;;;;;;23.72;71.13;94981.53;5022396;28;20456;-85
2021/06/07 09:42:00;;;;;;;20.10;17.00;;;;;;;23.71;70.58;94989.78;5021552;28;21030;-85
2021/06/07 09:44:31;;;;;;;19.03;17.13;;;;;;;23.62;71.53;94996.38;5021275;28;20452;-85
2021/06/07 09:47:10;;;;;;;18.50;16.67;;;;;;;23.48;72.21;95007.09;5022010;28;20948;-83
2021/06/07 09:49:39;;;;;;;19.63;17.60;;;;;;;23.35;72.03;95011.59;5022071;28;20487;-83
2021/06/07 09:52:10;;;;;;;21.93;18.63;;;;;;;23.25;73.11;95011.19;5018944;28;20542;-85
2021/06/07 09:54:36;;;;;;;19.27;16.83;;;;;;;23.22;74.51;95012.44;5035748;28;20462;-85
2021/06/07 09:57:03;;;;;;;19.27;17.23;;;;;;;23.18;74.32;95029.94;5040411;28;20457;-85
2021/06/07 09:59:33;;;;;;;21.37;16.57;;;;;;;23.03;73.28;95034.63;5042984;28;20442;-84
2021/06/07 10:02:01;;;;;;;18.43;14.27;;;;;;;22.76;72.46;95029.19;5039015;28;20451;-83
2021/06/07 10:04:51;;;;;;;13.20;12.07;;;;;;;22.56;71.65;95026.47;5036358;28;20448;-85
2021/06/07 10:07:18;;;;;;;12.50;10.90;;;;;;;22.29;72.00;95029.25;5035799;28;20491;-87
2021/06/07 10:10:19;;;;;;;13.73;11.37;;;;;;;21.93;73.40;95028.38;5035751;28;20848;-84
2021/06/07 10:12:47;;;;;;;15.23;12.20;;;;;;;21.71;75.71;95028.66;5038075;28;20447;-87
2021/06/07 10:15:29;;;;;;;11.97;10.10;;;;;;;21.45;76.68;95024.78;5037896;28;20456;-85
2021/06/07 10:17:56;;;;;;;11.57;9.60;;;;;;;21.28;75.46;95012.72;5005902;28;20456;-85
2021/06/07 10:23:09;;;;;;;8.87;8.10;;;;;;;21.15;76.78;95005.41;5022187;28;20439;-85
2021/06/07 10:25:35;;;;;;;15.90;9.80;;;;;;;21.22;77.85;95005.47;5021850;28;20797;-85
2021/06/07 10:28:02;;;;;;;11.40;8.73;;;;;;;21.30;79.61;95013.34;5022014;28;20846;-85
2021/06/07 10:30:29;;;;;;;10.63;9.70;;;;;;;21.36;79.80;95011.75;5021811;28;20480;-85
2021/06/07 10:32:56;;;;;;;12.90;10.63;;;;;;;21.32;78.98;95012.13;5016899;28;20501;-85
2021/06/07 10:35:36;;;;;;;23.00;11.37;;;;;;;21.40;79.08;95005.84;5016031;28;20454;-86
2021/06/07 10:38:11;;;;;;;11.00;9.77;;;;;;;21.45;79.01;95003.41;5015900;28;20440;-85
2021/06/07 10:40:41;;;;;;;14.20;11.80;;;;;;;21.49;77.18;95009.19;5015168;28;20451;-85
2021/06/07 10:43:10;;;;;;;18.13;10.90;;;;;;;21.57;76.84;95011.72;5016451;28;20445;-86
2021/06/07 10:45:38;;;;;;;13.67;12.30;;;;;;;21.59;76.95;95020.34;5015910;28;20453;-86
2021/06/07 10:48:06;;;;;;;15.30;11.80;;;;;;;21.68;78.36;95005.81;5016121;28;20471;-85
2021/06/07 10:54:31;;;;;;;12.37;10.80;;;;;;;21.72;78.92;95008.94;5018798;28;20431;-86
2021/06/07 10:57:30;;;;;;;13.50;11.83;;;;;;;21.74;82.50;95009.56;5020846;28;21010;-86
2021/06/07 10:59:59;;;;;;;11.90;10.80;;;;;;;21.70;83.44;95000.31;5021635;28;20440;-86
2021/06/07 11:02:34;;;;;;;14.57;11.60;;;;;;;21.76;83.38;95016.38;5021613;28;20435;-86
2021/06/07 11:05:03;;;;;;;15.00;13.63;;;;;;;21.80;83.81;95011.47;5019950;28;20431;-86
2021/06/07 11:07:45;;;;;;;13.40;12.10;;;;;;;21.84;82.87;95010.03;5020500;28;20530;-85
2021/06/07 11:10:25;;;;;;;13.20;11.90;;;;;;;21.85;81.80;95001.00;5032235;28;20488;-85
2021/06/07 11:12:53;;;;;;;14.23;12.87;;;;;;;21.82;81.44;95001.41;5033553;28;20444;-85
2021/06/07 11:15:22;;;;;;;12.93;11.83;;;;;;;21.79;78.40;95005.28;4980518;28;20440;-85
2021/06/07 11:17:51;;;;;;;18.60;13.10;;;;;;;21.81;78.06;95007.75;5031338;28;20445;-84
2021/06/07 11:20:38;;;;;;;13.37;12.00;;;;;;;21.90;78.68;95006.56;5023099;28;20497;-85
2021/06/07 11:23:07;;;;;;;12.70;11.50;;;;;;;21.98;79.59;95002.94;4973283;29;20561;-84
2021/06/07 11:25:44;;;;;;;13.70;12.40;;;;;;;22.00;77.97;95007.06;4972717;28;20446;-84
2021/06/07 11:28:30;;;;;;;14.03;12.73;;;;;;;22.09;77.66;95005.91;4969186;28;20470;-85
2021/06/07 11:30:56;;;;;;;19.30;13.50;;;;;;;22.13;79.57;95000.97;4955606;28;20505;-85
2021/06/07 11:33:23;;;;;;;15.20;13.00;;;;;;;22.23;77.61;95001.44;4992614;28;20459;-85
2021/06/07 11:35:51;;;;;;;14.60;13.30;;;;;;;22.32;79.05;95000.25;4982015;28;20436;-86
2021/06/07 11:38:31;;;;;;;13.87;12.57;;;;;;;22.42;80.54;94994.53;4977968;28;20842;-85
2021/06/07 11:41:00;;;;;;;14.10;12.70;;;;;;;22.45;77.98;94994.94;4977450;28;20450;-85
2021/06/07 11:43:54;;;;;;;14.80;13.50;;;;;;;22.51;77.22;94996.81;4972370;28;20533;-86
2021/06/07 11:46:58;;;;;;;14.70;13.20;;;;;;;22.53;76.05;94994.75;4961759;29;20962;-85
2021/06/07 11:49:25;;;;;;;16.30;14.70;;;;;;;22.56;76.65;94990.88;4962881;29;20482;-85
2021/06/07 11:52:08;;;;;;;15.13;13.43;;;;;;;22.69;76.68;95001.59;4963115;29;20465;-85
2021/06/07 11:54:50;;;;;;;15.30;13.83;;;;;;;22.80;77.46;94992.16;4905855;29;20961;-84
2021/06/07 11:57:21;;;;;;;15.97;14.30;;;;;;;22.93;76.13;94994.06;4905918;29;20486;-85
2021/06/07 11:59:54;;;;;;;15.33;13.70;;;;;;;23.08;74.07;94994.69;4925808;29;20457;-85
2021/06/07 12:02:21;;;;;;;37.53;14.80;;;;;;;23.20;74.72;94989.56;4958760;29;20524;-85